Time;durP1;ratioP1;P1;durP2;ratioP2;P2;SDS_P1;SDS_P2;PMS_P1;PMS_P2;Temp;Humidity;BMP_temperature;BMP_pressure;BME280_temperature;BME280_humidity;BME280_pressure;Samples;Min_cycle;Max_cycle;Signal;HPM_P1;HPM_P2
2023/05/16 00:02:14;;;;;;;;;;;;;;;18.51;53.23;101302.56;5080765;28;20404;-87
2023/05/16 00:04:40;;;;;;;;;;;;;;;18.53;53.28;101311.44;5074809;28;19924;-87
2023/05/16 00:07:06;;;;;;;;;;;;;;;18.55;53.16;101306.22;5061280;28;20006;-86
2023/05/16 00:09:31;;;;;;;;;;;;;;;18.52;53.33;101307.91;5097083;28;19912;-86
2023/05/16 00:11:57;;;;;;;;;;;;;;;18.54;53.20;101309.69;5090781;28;20404;-86
2023/05/16 00:14:25;;;;;;;;;;;;;;;18.51;53.45;101307.88;5096589;28;19942;-86
2023/05/16 00:16:50;;;;;;;;;;;;;;;18.50;53.32;101306.09;5078156;28;19916;-87
2023/05/16 00:19:16;;;;;;;;;;;;;;;18.50;53.25;101309.63;5073501;28;19950;-86
2023/05/16 00:21:41;;;;;;;;;;;;;;;18.51;53.29;101308.75;5092643;28;19920;-86
2023/05/16 00:24:07;;;;;;;;;;;;;;;18.49;53.24;101298.97;5077837;28;20293;-86
2023/05/16 00:26:32;;;;;;;;;;;;;;;18.47;53.49;101300.69;5078317;28;20373;-87
2023/05/16 00:28:57;;;;;;;;;;;;;;;18.46;53.54;101297.16;5078807;28;19916;-86
2023/05/16 00:31:23;;;;;;;;;;;;;;;18.42;53.28;101279.41;5096296;28;20002;-86
2023/05/16 00:33:48;;;;;;;;;;;;;;;18.45;53.35;101274.19;5097584;28;20396;-86
2023/05/16 00:36:14;;;;;;;;;;;;;;;18.42;53.35;101278.50;5077901;28;19916;-86
2023/05/16 00:38:39;;;;;;;;;;;;;;;18.40;53.68;101281.09;5096376;28;19923;-87
2023/05/16 00:41:06;;;;;;;;;;;;;;;18.41;53.44;101284.63;5077365;28;19928;-87
2023/05/16 00:43:31;;;;;;;;;;;;;;;18.41;53.65;101281.97;5077634;28;20034;-86
2023/05/16 00:45:56;;;;;;;;;;;;;;;18.40;53.65;101291.69;5078589;28;20600;-87
2023/05/16 00:48:24;;;;;;;;;;;;;;;18.41;53.45;101298.75;5092612;28;20380;-87
2023/05/16 00:50:51;;;;;;;;;;;;;;;18.39;53.59;101303.09;5077899;28;20308;-87
2023/05/16 00:53:16;;;;;;;;;;;;;;;18.39;53.35;101299.56;5094491;28;19924;-86
2023/05/16 00:55:42;;;;;;;;;;;;;;;18.41;53.41;101301.38;5093948;28;19927;-86
2023/05/16 00:58:08;;;;;;;;;;;;;;;18.39;53.49;101297.78;5067918;28;19916;-87
2023/05/16 01:00:34;;;;;;;;;;;;;;;18.38;53.38;101293.38;5060129;28;19927;-86
2023/05/16 01:02:59;;;;;;;;;;;;;;;18.36;53.63;101287.13;5076560;28;20332;-87
2023/05/16 01:05:25;;;;;;;;;;;;;;;18.37;53.49;101277.44;5075755;28;19916;-87
2023/05/16 01:07:50;;;;;;;;;;;;;;;18.34;53.58;101286.19;5071564;28;19955;-87
2023/05/16 01:10:16;;;;;;;;;;;;;;;18.36;53.39;101281.84;5091619;28;20304;-87
2023/05/16 01:12:47;;;;;;;;;;;;;;;18.36;53.63;101283.59;5093108;28;19917;-87
2023/05/16 01:15:14;;;;;;;;;;;;;;;18.36;53.53;101281.84;5068718;28;20373;-86
2023/05/16 01:17:52;;;;;;;;;;;;;;;18.34;53.30;101291.47;5067306;28;20313;-86
2023/05/16 01:20:33;;;;;;;;;;;;;;;18.31;53.37;101294.94;5092941;28;20316;-86
2023/05/16 01:23:04;;;;;;;;;;;;;;;18.34;53.51;101294.13;5092957;28;19916;-86
2023/05/16 01:25:38;;;;;;;;;;;;;;;18.33;53.51;101295.00;5074115;28;19971;-86
2023/05/16 01:28:04;;;;;;;;;;;;;;;18.29;53.51;101293.09;5094076;28;19965;-86
2023/05/16 01:30:36;;;;;;;;;;;;;;;18.33;53.44;101295.00;5072586;28;20355;-87
2023/05/16 01:33:02;;;;;;;;;;;;;;;18.32;53.58;101290.53;5075226;28;20010;-86
2023/05/16 01:35:27;;;;;;;;;;;;;;;18.28;53.66;101284.25;5074248;28;20007;-86
2023/05/16 01:38:04;;;;;;;;;;;;;;;18.26;53.79;101275.38;5091926;28;19916;-86
2023/05/16 01:40:47;;;;;;;;;;;;;;;18.30;53.57;101265.78;5074680;28;19924;-87
2023/05/16 01:43:13;;;;;;;;;;;;;;;18.30;53.49;101255.22;5074829;28;19985;-87
2023/05/16 01:45:46;;;;;;;;;;;;;;;18.30;53.78;101265.78;5071825;28;20351;-86
2023/05/16 01:48:31;;;;;;;;;;;;;;;18.27;53.85;101263.06;5068427;28;20002;-86
2023/05/16 01:50:57;;;;;;;;;;;;;;;18.27;53.73;101257.78;5074152;28;19920;-86
2023/05/16 01:53:27;;;;;;;;;;;;;;;18.30;53.72;101257.88;5074602;28;19973;-87
2023/05/16 01:55:55;;;;;;;;;;;;;;;18.28;53.68;101259.56;5073824;28;19920;-86
2023/05/16 01:58:21;;;;;;;;;;;;;;;18.28;53.77;101243.69;5073330;28;19920;-87
2023/05/16 02:00:47;;;;;;;;;;;;;;;18.26;53.89;101240.13;5069792;28;19932;-86
2023/05/16 02:03:12;;;;;;;;;;;;;;;18.25;53.99;101243.63;5074584;28;19922;-86
2023/05/16 02:05:38;;;;;;;;;;;;;;;18.22;53.90;101231.19;5070742;28;19989;-86
2023/05/16 02:08:03;;;;;;;;;;;;;;;18.25;53.77;101227.75;5091879;28;19916;-87
2023/05/16 02:10:29;;;;;;;;;;;;;;;18.24;53.60;101218.91;5074497;28;19935;-87
2023/05/16 02:12:54;;;;;;;;;;;;;;;18.20;53.75;101217.06;5074358;28;20408;-87
2023/05/16 02:15:20;;;;;;;;;;;;;;;18.21;53.82;101210.91;5053978;28;19939;-87
2023/05/16 02:17:46;;;;;;;;;;;;;;;18.21;53.77;101205.63;5050012;28;19944;-87
2023/05/16 02:20:12;;;;;;;;;;;;;;;18.21;53.87;101200.31;5089980;28;20313;-87
2023/05/16 02:22:41;;;;;;;;;;;;;;;18.20;53.81;101203.84;5054039;28;20061;-86
2023/05/16 02:25:07;;;;;;;;;;;;;;;18.18;53.75;101199.34;5086048;28;19923;-87
2023/05/16 02:27:32;;;;;;;;;;;;;;;18.22;53.42;101211.78;5091730;28;19920;-86
2023/05/16 02:29:57;;;;;;;;;;;;;;;18.19;53.62;101206.44;5090451;28;19916;-87
2023/05/16 02:32:23;;;;;;;;;;;;;;;18.19;53.66;101212.59;5091784;28;20007;-86
2023/05/16 02:34:49;;;;;;;;;;;;;;;18.19;53.72;101228.47;5072322;28;20427;-87
2023/05/16 02:37:15;;;;;;;;;;;;;;;18.21;53.68;101232.06;5073155;28;19916;-88
2023/05/16 02:39:40;;;;;;;;;;;;;;;18.19;53.77;101232.84;5057746;28;20293;-88
2023/05/16 02:42:07;;;;;;;;;;;;;;;18.20;53.80;101245.22;5050311;28;19938;-87
2023/05/16 02:44:32;;;;;;;;;;;;;;;18.17;53.77;101247.78;5063637;28;19920;-87
2023/05/16 02:46:58;;;;;;;;;;;;;;;18.17;54.02;101255.72;5072072;28;19920;-85
2023/05/16 02:49:23;;;;;;;;;;;;;;;18.19;53.85;101251.38;5073509;28;19923;-85
2023/05/16 02:51:49;;;;;;;;;;;;;;;18.16;53.79;101251.25;5073215;28;20365;-86
2023/05/16 02:54:14;;;;;;;;;;;;;;;18.14;54.01;101258.25;5089513;28;20342;-87
2023/05/16 02:56:40;;;;;;;;;;;;;;;18.13;53.96;101278.50;5072170;28;20270;-85
2023/05/16 02:59:05;;;;;;;;;;;;;;;18.13;54.10;101273.22;5055784;28;19923;-86
2023/05/16 03:01:31;;;;;;;;;;;;;;;18.12;53.90;101271.44;5072297;28;20361;-83
2023/05/16 03:03:56;;;;;;;;;;;;;;;18.16;53.81;101269.75;5090607;28;20405;-86
2023/05/16 03:06:22;;;;;;;;;;;;;;;18.12;53.80;101260.84;5090046;28;20401;-86
2023/05/16 03:08:47;;;;;;;;;;;;;;;18.11;53.62;101261.69;5070354;28;19926;-85
2023/05/16 03:11:13;;;;;;;;;;;;;;;18.13;53.92;101261.75;5073811;28;20427;-85
2023/05/16 03:13:38;;;;;;;;;;;;;;;18.11;53.72;101262.59;5091479;28;19973;-85
2023/05/16 03:16:04;;;;;;;;;;;;;;;18.14;53.93;101264.44;5064862;28;19923;-85
2023/05/16 03:18:30;;;;;;;;;;;;;;;18.09;53.98;101252.81;5085439;28;19920;-83
2023/05/16 03:20:56;;;;;;;;;;;;;;;18.10;53.92;101257.28;5079204;28;19923;-84
2023/05/16 03:23:21;;;;;;;;;;;;;;;18.11;54.20;101253.75;5091328;28;19912;-85
2023/05/16 03:25:47;;;;;;;;;;;;;;;18.12;54.11;101255.56;5071256;28;20002;-85
2023/05/16 03:28:12;;;;;;;;;;;;;;;18.13;53.98;101260.00;5091219;28;19919;-84
2023/05/16 03:30:38;;;;;;;;;;;;;;;18.12;54.03;101255.56;5073570;28;19920;-86
2023/05/16 03:33:03;;;;;;;;;;;;;;;18.10;54.08;101252.88;5091313;28;20449;-86
2023/05/16 03:35:29;;;;;;;;;;;;;;;18.11;54.22;101256.41;5071828;28;20599;-86
2023/05/16 03:37:55;;;;;;;;;;;;;;;18.10;54.13;101244.94;5090173;28;20626;-85
2023/05/16 03:40:21;;;;;;;;;;;;;;;18.07;54.32;101252.75;5067950;28;19916;-85
2023/05/16 03:42:46;;;;;;;;;;;;;;;18.06;54.16;101255.38;5082426;28;20358;-84
2023/05/16 03:45:11;;;;;;;;;;;;;;;18.04;53.89;101259.72;5072469;28;19920;-86
2023/05/16 03:47:37;;;;;;;;;;;;;;;18.05;53.89;101248.28;5055797;28;19928;-86
2023/05/16 03:50:03;;;;;;;;;;;;;;;18.04;53.61;101255.31;5090715;28;19969;-86
2023/05/16 03:52:28;;;;;;;;;;;;;;;18.04;53.87;101249.16;5061294;28;20407;-85
2023/05/16 03:54:54;;;;;;;;;;;;;;;18.01;53.68;101255.25;5067900;28;19916;-86
2023/05/16 03:57:19;;;;;;;;;;;;;;;18.04;53.86;101251.78;5065088;28;20372;-85
2023/05/16 03:59:44;;;;;;;;;;;;;;;18.04;53.68;101257.06;5072911;28;20416;-88
2023/05/16 04:02:10;;;;;;;;;;;;;;;18.02;53.91;101261.41;5073153;28;19912;-87
2023/05/16 04:04:35;;;;;;;;;;;;;;;18.02;54.06;101258.78;5072296;28;20002;-86
2023/05/16 04:07:01;;;;;;;;;;;;;;;18.04;53.91;101263.25;5060636;28;19916;-86
2023/05/16 04:09:26;;;;;;;;;;;;;;;18.07;53.92;101263.34;5085861;28;20673;-86
2023/05/16 04:11:52;;;;;;;;;;;;;;;18.07;53.84;101267.72;5086540;28;19927;-86
2023/05/16 04:14:17;;;;;;;;;;;;;;;18.04;53.79;101255.31;5067830;28;19916;-86
2023/05/16 04:16:42;;;;;;;;;;;;;;;18.06;53.78;101253.63;5077523;28;19923;-86
2023/05/16 04:19:08;;;;;;;;;;;;;;;18.04;53.99;101259.72;5070240;28;19916;-85
2023/05/16 04:21:35;;;;;;;;;;;;;;;18.05;53.95;101262.38;5088854;28;20316;-85
2023/05/16 04:24:00;;;;;;;;;;;;;;;18.03;54.09;101269.41;5064972;28;20278;-86
2023/05/16 04:26:26;;;;;;;;;;;;;;;17.99;54.21;101263.94;5087600;28;19916;-86
2023/05/16 04:28:51;;;;;;;;;;;;;;;18.02;54.27;101264.06;5089073;28;19928;-86
2023/05/16 04:31:17;;;;;;;;;;;;;;;18.02;54.15;101272.88;5061240;28;20375;-85
2023/05/16 04:33:42;;;;;;;;;;;;;;;18.04;54.27;101270.28;5084521;28;19916;-85
2023/05/16 04:36:08;;;;;;;;;;;;;;;18.01;54.34;101280.75;5066050;28;19924;-87
2023/05/16 04:38:33;;;;;;;;;;;;;;;18.03;54.06;101268.47;5070081;28;20396;-86
2023/05/16 04:40:59;;;;;;;;;;;;;;;18.03;54.28;101284.34;5055560;28;19928;-85
2023/05/16 04:43:25;;;;;;;;;;;;;;;18.02;54.52;101283.44;5068947;28;19920;-88
2023/05/16 04:45:52;;;;;;;;;;;;;;;18.05;54.63;101280.00;5084338;28;20293;-87
2023/05/16 04:48:19;;;;;;;;;;;;;;;18.00;54.37;101266.66;5048485;28;19940;-89
2023/05/16 04:50:46;;;;;;;;;;;;;;;18.00;54.33;101274.56;5046506;28;19924;-89
2023/05/16 04:53:13;;;;;;;;;;;;;;;18.02;54.00;101269.34;5052924;28;19916;-88
2023/05/16 04:55:39;;;;;;;;;;;;;;;17.98;54.43;101259.53;5068719;28;19926;-88
2023/05/16 04:58:04;;;;;;;;;;;;;;;17.98;53.99;101255.13;5068019;28;19999;-87
2023/05/16 05:00:30;;;;;;;;;;;;;;;18.01;53.80;101247.31;5069230;28;19920;-89
2023/05/16 05:02:56;;;;;;;;;;;;;;;18.00;53.53;101239.31;5047682;28;20313;-88
2023/05/16 05:05:21;;;;;;;;;;;;;;;17.95;53.83;101239.19;5068421;28;19917;-89
2023/05/16 05:07:48;;;;;;;;;;;;;;;17.99;53.49;101234.88;5048866;28;19928;-89
2023/05/16 05:10:14;;;;;;;;;;;;;;;17.97;53.20;101237.50;5036198;28;19920;-88
2023/05/16 05:12:42;;;;;;;;;;;;;;;17.95;53.37;101232.97;5066593;28;19924;-88
2023/05/16 05:15:08;;;;;;;;;;;;;;;17.97;53.03;101224.28;5047399;28;19954;-87
2023/05/16 05:17:33;;;;;;;;;;;;;;;17.95;53.17;101212.75;5066826;28;20309;-85
2023/05/16 05:19:59;;;;;;;;;;;;;;;17.99;53.08;101219.00;5067957;28;20023;-86
2023/05/16 05:22:24;;;;;;;;;;;;;;;17.95;53.63;101225.06;5071444;28;20290;-85
2023/05/16 05:24:50;;;;;;;;;;;;;;;17.99;53.46;101224.31;5068467;28;19970;-87
2023/05/16 05:27:16;;;;;;;;;;;;;;;18.00;53.26;101221.72;5069941;28;20381;-87
2023/05/16 05:29:41;;;;;;;;;;;;;;;18.00;53.26;101216.44;5055784;28;20370;-88
2023/05/16 05:32:07;;;;;;;;;;;;;;;18.00;53.45;101221.72;5046084;28;19921;-87
2023/05/16 05:34:33;;;;;;;;;;;;;;;18.00;53.22;101216.44;5062499;28;19928;-84
2023/05/16 05:36:59;;;;;;;;;;;;;;;18.04;53.12;101210.41;5073498;28;19924;-84
2023/05/16 05:39:25;;;;;;;;;;;;;;;18.01;53.09;101214.69;5073169;28;20015;-85
2023/05/16 05:41:50;;;;;;;;;;;;;;;18.02;53.15;101206.81;5073240;28;19963;-84
2023/05/16 05:44:16;;;;;;;;;;;;;;;18.01;53.11;101199.75;5045185;28;19912;-83
2023/05/16 05:46:41;;;;;;;;;;;;;;;17.99;53.11;101198.81;5054578;28;19963;-85
2023/05/16 05:49:06;;;;;;;;;;;;;;;17.99;53.18;101195.22;5065952;28;20420;-85
2023/05/16 05:51:32;;;;;;;;;;;;;;;17.99;52.96;101198.81;5074961;28;20470;-84
2023/05/16 05:53:57;;;;;;;;;;;;;;;17.99;52.92;101198.81;5063948;28;20355;-85
2023/05/16 05:56:23;;;;;;;;;;;;;;;17.98;52.98;101209.31;5090985;28;20434;-85
2023/05/16 05:58:49;;;;;;;;;;;;;;;17.95;53.02;101209.19;5059033;28;19920;-84
2023/05/16 06:01:14;;;;;;;;;;;;;;;17.98;53.10;101207.56;5056885;28;19917;-85
2023/05/16 06:03:40;;;;;;;;;;;;;;;17.94;53.20;101208.31;5074368;28;19919;-85
2023/05/16 06:06:06;;;;;;;;;;;;;;;17.97;53.08;101212.78;5074964;28;19919;-85
2023/05/16 06:08:31;;;;;;;;;;;;;;;17.98;53.22;101212.84;5093027;28;19912;-84
2023/05/16 06:10:57;;;;;;;;;;;;;;;17.92;53.32;101215.28;5079455;28;20488;-85
2023/05/16 06:13:22;;;;;;;;;;;;;;;17.92;53.23;101215.28;5074917;28;20359;-84
2023/05/16 06:15:51;;;;;;;;;;;;;;;17.90;53.42;101217.88;5074498;28;20389;-85
2023/05/16 06:18:16;;;;;;;;;;;;;;;17.94;53.56;101218.88;5093631;28;20316;-85
2023/05/16 06:20:42;;;;;;;;;;;;;;;17.94;53.42;101220.63;5093376;28;20003;-85
2023/05/16 06:23:07;;;;;;;;;;;;;;;17.94;53.50;101223.28;5093933;28;19940;-83
2023/05/16 06:25:33;;;;;;;;;;;;;;;17.94;53.55;101229.44;5076702;28;20526;-83
2023/05/16 06:27:58;;;;;;;;;;;;;;;17.95;53.44;101233.91;5064625;28;20458;-85
2023/05/16 06:30:24;;;;;;;;;;;;;;;17.93;53.43;101222.38;5092512;28;20369;-84
2023/05/16 06:32:49;;;;;;;;;;;;;;;17.97;53.50;101236.56;5092595;28;19970;-85
2023/05/16 06:35:15;;;;;;;;;;;;;;;17.94;53.63;101224.16;5074111;28;20410;-85
2023/05/16 06:37:40;;;;;;;;;;;;;;;17.92;53.84;101228.50;5092269;28;20392;-85
2023/05/16 06:40:06;;;;;;;;;;;;;;;17.92;53.84;101233.78;5061158;28;19924;-84
2023/05/16 06:42:31;;;;;;;;;;;;;;;17.93;53.98;101232.03;5064916;28;19920;-84
2023/05/16 06:44:57;;;;;;;;;;;;;;;17.93;53.94;101235.59;5088243;28;19916;-84
2023/05/16 06:47:23;;;;;;;;;;;;;;;17.89;54.07;101231.94;5092345;28;20316;-84
2023/05/16 06:49:49;;;;;;;;;;;;;;;17.91;53.68;101234.66;5074225;28;20381;-83
2023/05/16 06:52:15;;;;;;;;;;;;;;;17.93;53.82;101234.69;5074428;28;19927;-84
2023/05/16 06:54:40;;;;;;;;;;;;;;;17.89;53.67;101236.34;5074012;28;19916;-84
2023/05/16 06:57:07;;;;;;;;;;;;;;;17.93;53.98;101235.59;5063789;28;19912;-85
2023/05/16 06:59:33;;;;;;;;;;;;;;;17.95;54.01;101235.63;5067243;28;20062;-84
2023/05/16 07:02:00;;;;;;;;;;;;;;;17.94;53.83;101233.84;5074099;28;20077;-84
2023/05/16 07:04:25;;;;;;;;;;;;;;;17.96;53.87;101234.78;5073877;28;19949;-84
2023/05/16 07:06:51;;;;;;;;;;;;;;;17.98;53.96;101227.81;5092181;28;20002;-84
2023/05/16 07:09:16;;;;;;;;;;;;;;;17.98;53.85;101235.75;5056025;28;19917;-85
2023/05/16 07:11:42;;;;;;;;;;;;;;;17.98;53.77;101238.38;5083028;28;19928;-84
2023/05/16 07:14:08;;;;;;;;;;;;;;;17.95;53.96;101236.53;5072671;28;20312;-83
2023/05/16 07:16:34;;;;;;;;;;;;;;;17.98;53.91;101239.28;5091789;28;20398;-85
2023/05/16 07:18:59;;;;;;;;;;;;;;;17.97;53.81;101231.28;5091700;28;19943;-85
2023/05/16 07:21:25;;;;;;;;;;;;;;;18.00;53.94;101241.97;5073320;28;19922;-85
2023/05/16 07:23:50;;;;;;;;;;;;;;;18.03;53.66;101257.91;5073697;28;20377;-86
2023/05/16 07:26:16;;;;;;;;;;;;;;;17.98;53.93;101255.13;5091822;28;20007;-85
2023/05/16 07:28:41;;;;;;;;;;;;;;;18.02;54.17;101250.84;5054544;28;19963;-84
2023/05/16 07:31:07;;;;;;;;;;;;;;;18.02;54.26;101257.00;5083561;28;19916;-85
2023/05/16 07:33:32;;;;;;;;;;;;;;;18.03;53.87;101250.91;5091490;28;19920;-85
2023/05/16 07:35:58;;;;;;;;;;;;;;;18.04;53.95;101254.44;5060966;28;19966;-85
2023/05/16 07:38:23;;;;;;;;;;;;;;;18.04;54.02;101251.78;5070699;28;19971;-84
2023/05/16 07:40:49;;;;;;;;;;;;;;;18.02;54.37;101246.44;5091379;28;19923;-85
2023/05/16 07:43:15;;;;;;;;;;;;;;;18.05;54.55;101251.81;5091397;28;19912;-85
2023/05/16 07:45:40;;;;;;;;;;;;;;;18.04;54.39;101257.06;5091311;28;19916;-84
2023/05/16 07:48:06;;;;;;;;;;;;;;;18.05;54.14;101258.84;5090869;28;20488;-85
2023/05/16 07:50:32;;;;;;;;;;;;;;;18.07;54.14;101263.34;5091196;28;19923;-85
2023/05/16 07:52:57;;;;;;;;;;;;;;;18.06;54.06;101261.56;5059809;28;19924;-84
2023/05/16 07:55:23;;;;;;;;;;;;;;;18.06;54.23;101261.56;5063396;28;19983;-85
2023/05/16 07:57:48;;;;;;;;;;;;;;;18.08;54.09;101251.94;5071452;28;20344;-84
2023/05/16 08:00:14;;;;;;;;;;;;;;;18.06;nan;101244.81;5072693;28;20381;-85
2023/05/16 08:02:40;;;;;;;;;;;;;;;18.07;54.22;101243.94;5073183;28;20374;-85
2023/05/16 08:05:05;;;;;;;;;;;;;;;18.11;54.32;101241.44;5063638;28;20489;-83
2023/05/16 08:07:31;;;;;;;;;;;;;;;18.13;54.06;101245.88;5072573;28;19939;-85
2023/05/16 08:09:56;;;;;;;;;;;;;;;18.13;54.26;101252.06;5073091;28;19912;-85
2023/05/16 08:12:22;;;;;;;;;;;;;;;18.17;54.00;101238.09;5072801;28;20388;-85
2023/05/16 08:14:48;;;;;;;;;;;;;;;18.15;54.22;101247.72;5091110;28;19916;-84
2023/05/16 08:17:13;;;;;;;;;;;;;;;18.12;54.17;101247.66;5072809;28;20396;-85
2023/05/16 08:19:39;;;;;;;;;;;;;;;18.15;54.26;101254.75;5091091;28;20436;-85
2023/05/16 08:22:05;;;;;;;;;;;;;;;18.17;54.22;101258.34;5072985;28;20409;-85
2023/05/16 08:24:31;;;;;;;;;;;;;;;18.18;54.19;101260.13;5091993;28;20312;-84
2023/05/16 08:26:56;;;;;;;;;;;;;;;18.15;54.25;101258.28;5094882;28;19945;-85
2023/05/16 08:29:21;;;;;;;;;;;;;;;18.17;54.23;101271.56;5076492;28;20454;-85
2023/05/16 08:31:47;;;;;;;;;;;;;;;18.18;54.13;101261.06;5094193;28;20068;-85
2023/05/16 08:34:12;;;;;;;;;;;;;;;18.20;54.08;101259.34;5094659;28;20438;-85
2023/05/16 08:36:38;;;;;;;;;;;;;;;18.18;54.32;101249.56;5094464;28;20006;-85
2023/05/16 08:39:03;;;;;;;;;;;;;;;18.18;54.73;101254.84;5094638;28;20007;-85
2023/05/16 08:41:29;;;;;;;;;;;;;;;18.18;54.14;101249.56;5076493;28;19916;-85
2023/05/16 08:43:54;;;;;;;;;;;;;;;18.19;54.67;101252.25;5076724;28;19955;-85
2023/05/16 08:46:21;;;;;;;;;;;;;;;18.19;54.44;101246.97;5062738;28;20000;-84
2023/05/16 08:48:46;;;;;;;;;;;;;;;18.22;54.40;101249.69;5089031;28;20007;-85
2023/05/16 08:51:11;;;;;;;;;;;;;;;18.24;54.32;101250.63;5076364;28;20508;-85
2023/05/16 08:53:42;;;;;;;;;;;;;;;18.20;54.30;101248.78;5068521;28;20559;-84
2023/05/16 08:56:07;;;;;;;;;;;;;;;18.23;54.47;101245.31;5070301;28;20294;-84
2023/05/16 08:58:33;;;;;;;;;;;;;;;18.27;54.38;101245.47;5094167;28;19978;-85
2023/05/16 09:00:58;;;;;;;;;;;;;;;18.23;54.76;101248.84;5059181;28;20388;-85
2023/05/16 09:03:24;;;;;;;;;;;;;;;18.24;54.52;101247.09;5076248;28;19916;-85
2023/05/16 09:05:49;;;;;;;;;;;;;;;18.21;54.73;101241.75;5094234;28;19916;-85
2023/05/16 09:08:15;;;;;;;;;;;;;;;18.21;54.64;101252.31;5067379;28;19912;-85
2023/05/16 09:10:40;;;;;;;;;;;;;;;18.19;54.73;101238.16;5089265;28;20320;-85
2023/05/16 09:13:06;;;;;;;;;;;;;;;18.22;54.63;101239.13;5076187;28;19912;-85
2023/05/16 09:15:32;;;;;;;;;;;;;;;18.22;54.56;101228.53;5094069;28;20006;-85
2023/05/16 09:17:59;;;;;;;;;;;;;;;18.27;54.66;101240.16;5094253;28;19951;-85
2023/05/16 09:20:25;;;;;;;;;;;;;;;18.25;54.63;101225.13;5062507;28;20392;-85
2023/05/16 09:22:52;;;;;;;;;;;;;;;18.25;54.60;101228.66;5076339;28;20241;-84
2023/05/16 09:25:17;;;;;;;;;;;;;;;18.26;54.68;101213.69;5093971;28;20002;-84
2023/05/16 09:27:42;;;;;;;;;;;;;;;18.27;54.83;101211.09;5093980;28;20345;-84
2023/05/16 09:30:08;;;;;;;;;;;;;;;18.25;55.17;101204.84;5093943;28;19966;-85
2023/05/16 09:32:34;;;;;;;;;;;;;;;18.26;54.98;101196.06;5075930;28;20337;-85
2023/05/16 09:34:59;;;;;;;;;;;;;;;18.27;55.07;101196.97;5070211;28;20015;-85
2023/05/16 09:37:25;;;;;;;;;;;;;;;18.27;54.85;101202.28;5089614;28;19916;-85
2023/05/16 09:39:51;;;;;;;;;;;;;;;18.27;54.70;101197.88;5089578;28;19924;-84
2023/05/16 09:42:17;;;;;;;;;;;;;;;18.29;54.91;101188.25;5078569;28;19920;-85
2023/05/16 09:44:46;;;;;;;;;;;;;;;18.33;54.47;101194.53;5069675;28;19916;-84
2023/05/16 09:47:13;;;;;;;;;;;;;;;18.33;54.83;101196.25;5078518;28;19916;-86
2023/05/16 09:49:39;;;;;;;;;;;;;;;18.34;54.66;101196.28;5070013;28;19920;-85
2023/05/16 09:52:04;;;;;;;;;;;;;;;18.33;54.69;101199.81;5090457;28;19916;-85
2023/05/16 09:54:37;;;;;;;;;;;;;;;18.34;54.64;101198.94;5091679;28;20309;-85
2023/05/16 09:57:02;;;;;;;;;;;;;;;18.34;54.52;101192.75;5084264;28;19974;-85
2023/05/16 09:59:34;;;;;;;;;;;;;;;18.33;54.69;101189.22;5052013;28;19952;-86
2023/05/16 10:02:26;;;;;;;;;;;;;;;18.38;54.42;101184.06;5094120;28;20449;-86
2023/05/16 10:05:16;;;;;;;;;;;;;;;18.43;54.66;101172.75;5028566;28;19958;-92
2023/05/16 10:07:46;;;;;;;;;;;;;;;18.49;55.74;101172.94;5029361;28;19921;-83
2023/05/16 10:10:32;;;;;;;;;;;;;;;18.45;55.84;101165.75;5043169;28;19927;-85
2023/05/16 10:13:16;;;;;;;;;;;;;;;18.43;55.69;101159.53;5071144;28;19959;-86
2023/05/16 10:16:08;;;;;;;;;;;;;;;18.46;55.40;101151.69;5064788;28;19920;-86
2023/05/16 10:18:40;;;;;;;;;;;;;;;18.43;55.28;101143.66;5085640;28;19916;-85
2023/05/16 10:21:34;;;;;;;;;;;;;;;18.46;55.08;101146.41;5049006;28;19920;-86
2023/05/16 10:24:07;;;;;;;;;;;;;;;18.47;54.84;101131.44;5084968;28;19999;-86
2023/05/16 10:26:42;;;;;;;;;;;;;;;18.45;54.81;101128.72;5069254;28;20013;-86
2023/05/16 10:35:23;;;;;;;;;;;;;;;18.50;54.76;101129.78;5084676;28;19927;-84
2023/05/16 10:37:49;;;;;;;;;;;;;;;18.47;54.66;101127.03;5061064;28;20327;-85
2023/05/16 10:40:20;;;;;;;;;;;;;;;18.49;54.73;101127.97;5054275;28;19942;-85
2023/05/16 10:43:01;;;;;;;;;;;;;;;18.52;54.78;101127.19;5071793;28;19999;-84
2023/05/16 10:45:27;;;;;;;;;;;;;;;18.54;54.78;101129.84;5092554;28;19916;-84
2023/05/16 10:47:52;;;;;;;;;;;;;;;18.54;54.69;101124.56;5074048;28;19998;-83
2023/05/16 10:50:34;;;;;;;;;;;;;;;18.57;54.37;101127.31;5091626;28;19962;-86
2023/05/16 10:53:15;;;;;;;;;;;;;;;18.56;54.58;101130.78;5070978;28;19924;-85
2023/05/16 10:55:44;;;;;;;;;;;;;;;18.57;54.58;101132.59;5080158;28;19916;-86
2023/05/16 10:58:10;;;;;;;;;;;;;;;18.57;54.57;101122.00;5091067;28;19919;-85
2023/05/16 11:00:35;;;;;;;;;;;;;;;18.59;54.46;101122.94;5073211;28;20332;-86
2023/05/16 11:03:04;;;;;;;;;;;;;;;18.61;54.48;101114.19;5072486;28;20404;-85
2023/05/16 11:05:30;;;;;;;;;;;;;;;18.58;54.42;101113.19;5091956;28;19965;-85
2023/05/16 11:08:04;;;;;;;;;;;;;;;18.60;54.49;101111.50;5090189;28;19919;-86
2023/05/16 11:10:30;;;;;;;;;;;;;;;18.64;54.21;101108.09;5068308;28;19986;-86
2023/05/16 11:12:55;;;;;;;;;;;;;;;18.65;54.45;101107.25;5065376;28;19920;-86
2023/05/16 11:15:20;;;;;;;;;;;;;;;18.65;54.47;101096.66;5072586;28;20011;-85
2023/05/16 11:17:46;;;;;;;;;;;;;;;18.66;54.40;101098.44;5091397;28;20377;-85
2023/05/16 11:20:31;;;;;;;;;;;;;;;18.67;54.49;101089.66;5073147;28;19920;-84
2023/05/16 11:23:19;;;;;;;;;;;;;;;18.68;54.33;101084.38;5073557;28;20403;-86
2023/05/16 11:25:44;;;;;;;;;;;;;;;18.70;54.21;101073.84;5079151;28;19912;-87
2023/05/16 11:28:11;;;;;;;;;;;;;;;18.69;54.38;101072.09;5091288;28;19919;-87
2023/05/16 11:30:37;;;;;;;;;;;;;;;18.70;54.38;101073.84;5073699;28;19919;-86
2023/05/16 11:33:02;;;;;;;;;;;;;;;18.69;54.42;101072.97;5073034;28;20400;-86
2023/05/16 11:35:28;;;;;;;;;;;;;;;18.71;54.48;101068.63;5090591;28;19961;-87
2023/05/16 11:37:54;;;;;;;;;;;;;;;18.73;54.46;101058.03;5090243;28;20442;-85
2023/05/16 11:40:19;;;;;;;;;;;;;;;18.77;54.30;101057.28;5054337;28;19916;-87
2023/05/16 11:42:49;;;;;;;;;;;;;;;18.74;54.22;101062.50;5068834;28;19965;-86
2023/05/16 11:45:18;;;;;;;;;;;;;;;18.77;54.28;101057.28;5068911;28;19918;-87
2023/05/16 11:47:44;;;;;;;;;;;;;;;18.81;54.11;101061.81;5072023;28;20029;-86
2023/05/16 11:50:11;;;;;;;;;;;;;;;18.80;54.09;101067.09;5072323;28;19986;-86
2023/05/16 11:52:36;;;;;;;;;;;;;;;18.80;nan;101054.75;5059868;28;19912;-87
2023/05/16 11:55:03;;;;;;;;;;;;;;;18.81;54.30;101040.66;5072205;28;19919;-86
2023/05/16 11:57:28;;;;;;;;;;;;;;;18.78;54.25;101048.53;5072336;28;20010;-86
2023/05/16 11:59:54;;;;;;;;;;;;;;;18.79;54.27;101045.00;5042763;28;20570;-86
2023/05/16 12:02:19;;;;;;;;;;;;;;;18.82;54.20;101055.69;5067666;28;20452;-86
2023/05/16 12:04:49;;;;;;;;;;;;;;;18.86;54.08;101046.97;5089834;28;19969;-86
2023/05/16 12:07:14;;;;;;;;;;;;;;;18.86;54.08;101052.25;5070830;28;19913;-86
2023/05/16 12:09:39;;;;;;;;;;;;;;;18.85;54.03;101052.22;5090521;28;19965;-86
2023/05/16 12:12:06;;;;;;;;;;;;;;;18.86;54.00;101049.63;5072223;28;20380;-86
2023/05/16 12:14:32;;;;;;;;;;;;;;;18.88;54.04;101053.19;5072086;28;20385;-86
2023/05/16 12:16:57;;;;;;;;;;;;;;;18.90;54.17;101045.28;5088869;28;19920;-86
2023/05/16 12:19:23;;;;;;;;;;;;;;;18.89;54.20;101041.72;5072500;28;19923;-86
2023/05/16 12:21:51;;;;;;;;;;;;;;;18.91;54.12;101041.78;5072260;28;19912;-85
2023/05/16 12:24:17;;;;;;;;;;;;;;;18.89;54.32;101043.50;5089865;28;19969;-85
2023/05/16 12:26:43;;;;;;;;;;;;;;;18.90;54.12;101071.72;5090375;28;20366;-85
2023/05/16 12:29:10;;;;;;;;;;;;;;;18.92;54.06;101078.88;5090627;28;19912;-84
2023/05/16 12:31:36;;;;;;;;;;;;;;;18.94;54.00;101078.91;5042327;28;20252;-85
2023/05/16 12:34:02;;;;;;;;;;;;;;;18.93;54.08;101074.47;5090381;28;19916;-86
2023/05/16 12:36:30;;;;;;;;;;;;;;;18.94;54.21;101067.41;5090298;28;19926;-86
2023/05/16 12:38:58;;;;;;;;;;;;;;;18.94;54.29;101076.25;5052878;28;19920;-87
2023/05/16 12:41:24;;;;;;;;;;;;;;;18.94;54.27;101065.66;5052077;28;20011;-86
2023/05/16 12:43:49;;;;;;;;;;;;;;;18.99;53.98;101065.81;5048959;28;20388;-87